createdAt,value
2018-11-14T00:05:19.579Z,22.20
2018-11-14T00:15:25.474Z,22.20
2018-11-14T00:25:30.074Z,22.20
2018-11-14T00:35:34.793Z,22.10
2018-11-14T00:45:39.420Z,22.10
2018-11-14T00:55:44.153Z,22.10
2018-11-14T01:05:48.860Z,22.10
2018-11-14T01:15:53.630Z,22.10
2018-11-14T01:25:58.306Z,22.10
2018-11-14T01:36:03.041Z,22.10
2018-11-14T01:46:07.866Z,22.10
2018-11-14T01:56:12.606Z,22.00
2018-11-14T02:06:17.349Z,22.00
2018-11-14T02:16:22.003Z,22.00
2018-11-14T02:26:26.692Z,22.00
2018-11-14T02:36:31.408Z,22.00
2018-11-14T02:46:36.005Z,22.00
2018-11-14T02:56:40.666Z,22.00
2018-11-14T03:06:45.519Z,22.00
2018-11-14T03:16:50.397Z,22.00
2018-11-14T03:26:55.129Z,22.00
2018-11-14T03:37:00.077Z,22.00
2018-11-14T03:47:05.194Z,22.00
2018-11-14T03:57:09.832Z,22.00
2018-11-14T04:07:14.669Z,22.00
2018-11-14T04:17:19.333Z,22.00
2018-11-14T04:27:24.059Z,22.00
2018-11-14T04:37:28.848Z,22.10
2018-11-14T04:47:33.539Z,22.00
2018-11-14T04:57:38.384Z,22.00
2018-11-14T05:07:43.719Z,22.10
2018-11-14T05:17:48.977Z,22.10
2018-11-14T05:27:53.659Z,22.10
2018-11-14T05:37:58.395Z,22.10
2018-11-14T05:48:03.301Z,22.10
2018-11-14T05:58:08.874Z,22.10
2018-11-14T06:08:13.582Z,22.10
2018-11-14T06:18:18.405Z,22.10
2018-11-14T06:28:22.986Z,22.10
2018-11-14T06:38:27.886Z,22.20
2018-11-14T06:48:32.587Z,22.20
2018-11-14T06:58:37.229Z,22.20
2018-11-14T07:08:41.893Z,22.20
2018-11-14T07:18:46.921Z,22.20
2018-11-14T07:28:51.648Z,22.20
2018-11-14T07:38:56.434Z,22.20
2018-11-14T07:49:01.983Z,22.20
2018-11-14T07:59:07.909Z,22.20
2018-11-14T08:09:12.565Z,22.20
2018-11-14T08:19:17.310Z,22.20
2018-11-14T08:29:21.953Z,22.20
2018-11-14T08:39:27.083Z,22.20
2018-11-14T08:49:31.791Z,22.20
2018-11-14T08:59:36.544Z,22.20
2018-11-14T09:09:41.239Z,22.20
2018-11-14T09:19:46.656Z,22.20
2018-11-14T09:29:51.406Z,22.20
2018-11-14T09:39:56.344Z,22.20
2018-11-14T09:50:01.044Z,22.30
2018-11-14T10:00:12.608Z,22.20
2018-11-14T10:10:18.744Z,22.20
2018-11-14T10:20:24.588Z,22.20
2018-11-14T10:30:29.947Z,22.20
2018-11-14T10:40:34.803Z,22.20
2018-11-14T10:50:39.781Z,22.20
2018-11-14T11:01:53.502Z,22.20
2018-11-14T11:12:03.209Z,22.20
2018-11-14T11:22:16.799Z,22.30
2018-11-14T11:32:21.584Z,22.40
2018-11-14T11:42:26.328Z,22.20
2018-11-14T11:52:31.608Z,22.30
2018-11-14T12:02:36.499Z,22.40
2018-11-14T12:12:41.740Z,22.50
2018-11-14T12:22:46.565Z,22.50
2018-11-14T12:32:51.317Z,22.30
2018-11-14T12:42:55.992Z,22.20
2018-11-14T12:53:00.854Z,22.40
2018-11-14T13:03:06.672Z,22.40
2018-11-14T13:13:11.564Z,22.50
2018-11-14T13:23:16.664Z,22.50
2018-11-14T13:33:21.559Z,22.40
2018-11-14T13:43:26.459Z,22.50
2018-11-14T13:53:31.269Z,22.60
2018-11-14T14:03:36.158Z,22.70
2018-11-14T14:13:46.031Z,22.70
2018-11-14T14:23:50.786Z,22.70
2018-11-14T14:33:55.568Z,22.60
2018-11-14T14:44:00.210Z,22.60
2018-11-14T14:54:06.166Z,22.70
2018-11-14T15:04:11.047Z,22.60
2018-11-14T15:14:15.781Z,22.60
2018-11-14T15:24:21.197Z,22.50
2018-11-14T15:34:25.975Z,22.60
2018-11-14T15:44:34.514Z,22.60
2018-11-14T15:54:40.392Z,22.70
2018-11-14T16:04:45.651Z,22.60
2018-11-14T16:14:52.582Z,22.70
2018-11-14T16:24:57.859Z,22.70
2018-11-14T16:35:03.590Z,22.80
2018-11-14T16:45:08.894Z,22.80
2018-11-14T16:55:15.583Z,22.90
2018-11-14T17:05:20.676Z,23.00
2018-11-14T17:15:26.381Z,23.30
2018-11-14T17:25:33.223Z,23.30
2018-11-14T17:35:38.853Z,23.30
2018-11-14T17:45:43.684Z,23.30
2018-11-14T17:55:49.211Z,23.30
2018-11-14T18:05:55.576Z,23.40
2018-11-14T18:16:00.490Z,23.40
2018-11-14T18:26:05.381Z,23.40
2018-11-14T18:36:10.137Z,23.40
2018-11-14T18:46:15.602Z,23.40
2018-11-14T18:56:21.394Z,23.40
2018-11-14T19:06:26.593Z,23.40
2018-11-14T19:16:31.908Z,23.40
2018-11-14T19:26:36.769Z,23.50
2018-11-14T19:36:41.519Z,23.50
2018-11-14T19:46:46.352Z,23.50
2018-11-14T19:56:52.101Z,23.50
2018-11-14T20:06:56.854Z,23.60
2018-11-14T20:17:01.640Z,23.60
2018-11-14T20:27:06.756Z,23.60
2018-11-14T20:37:11.718Z,23.60
2018-11-14T20:47:19.591Z,23.60
2018-11-14T20:57:24.771Z,23.60
2018-11-14T21:07:29.520Z,23.70
2018-11-14T21:17:34.213Z,23.60
2018-11-14T21:27:39.509Z,23.60
2018-11-14T21:37:45.388Z,23.60
2018-11-14T21:47:55.986Z,23.60
2018-11-14T21:58:00.972Z,23.60
2018-11-14T22:08:06.205Z,23.70
2018-11-14T22:18:11.299Z,23.70
2018-11-14T22:28:16.029Z,23.70
2018-11-14T22:38:21.031Z,23.80
2018-11-14T22:48:25.948Z,23.80
2018-11-14T22:58:30.691Z,23.10
2018-11-14T23:08:36.296Z,22.50
2018-11-14T23:18:40.991Z,22.60
2018-11-14T23:28:45.966Z,22.90
2018-11-14T23:38:50.766Z,23.00
2018-11-14T23:48:56.784Z,23.10
2018-11-14T23:59:01.479Z,23.10
